sensor_id;sensor_type;location;lat;lon;timestamp;temperature;humidity
44447;DHT22;30152;52.066;5.358;2023-10-08T06:15:38;14.60;99.90
44447;DHT22;30152;52.066;5.358;2023-10-08T06:20:38;14.20;99.90
44447;DHT22;30152;52.066;5.358;2023-10-08T06:25:34;14.50;99.90
44447;DHT22;30152;52.066;5.358;2023-10-08T06:28:11;14.50;99.90
44447;DHT22;30152;52.066;5.358;2023-10-08T06:30:37;14.10;99.90
44447;DHT22;30152;52.066;5.358;2023-10-08T06:35:32;14.50;99.90
44447;DHT22;30152;52.066;5.358;2023-10-08T06:37:58;14.50;99.90
44447;DHT22;30152;52.066;5.358;2023-10-08T06:43:06;15.10;99.90
44447;DHT22;30152;52.066;5.358;2023-10-08T06:45:44;14.60;99.90
44447;DHT22;30152;52.066;5.358;2023-10-08T06:48:11;14.50;99.90
44447;DHT22;30152;52.066;5.358;2023-10-08T06:50:45;14.00;99.90
44447;DHT22;30152;52.066;5.358;2023-10-08T06:55:42;14.60;99.90
44447;DHT22;30152;52.066;5.358;2023-10-08T07:08:10;13.90;99.90
44447;DHT22;30152;52.066;5.358;2023-10-08T07:10:39;14.50;99.90
44447;DHT22;30152;52.066;5.358;2023-10-08T07:15:34;13.80;99.90
44447;DHT22;30152;52.066;5.358;2023-10-08T07:20:37;14.50;99.90
44447;DHT22;30152;52.066;5.358;2023-10-08T07:23:08;14.20;99.90
44447;DHT22;30152;52.066;5.358;2023-10-08T07:25:54;14.80;99.90
44447;DHT22;30152;52.066;5.358;2023-10-08T07:28:23;15.10;99.90
44447;DHT22;30152;52.066;5.358;2023-10-08T07:30:51;14.10;99.90
44447;DHT22;30152;52.066;5.358;2023-10-08T07:33:18;14.10;99.90
44447;DHT22;30152;52.066;5.358;2023-10-08T07:35:47;14.50;99.90
44447;DHT22;30152;52.066;5.358;2023-10-08T07:38:19;14.10;99.90
44447;DHT22;30152;52.066;5.358;2023-10-08T07:40:46;14.30;99.90
44447;DHT22;30152;52.066;5.358;2023-10-08T07:43:12;14.70;99.90
44447;DHT22;30152;52.066;5.358;2023-10-08T07:45:38;14.80;99.90
44447;DHT22;30152;52.066;5.358;2023-10-08T07:50:35;13.80;99.90
44447;DHT22;30152;52.066;5.358;2023-10-08T07:53:03;14.50;99.90
44447;DHT22;30152;52.066;5.358;2023-10-08T07:55:29;14.60;99.90
44447;DHT22;30152;52.066;5.358;2023-10-08T07:57:58;14.30;99.90
44447;DHT22;30152;52.066;5.358;2023-10-08T08:00:24;13.90;99.90
44447;DHT22;30152;52.066;5.358;2023-10-08T08:02:51;13.90;99.90
44447;DHT22;30152;52.066;5.358;2023-10-08T08:10:12;14.40;99.90
44447;DHT22;30152;52.066;5.358;2023-10-08T08:12:37;14.50;99.90
44447;DHT22;30152;52.066;5.358;2023-10-08T08:15:03;14.50;99.90
44447;DHT22;30152;52.066;5.358;2023-10-08T08:17:43;14.50;99.90
44447;DHT22;30152;52.066;5.358;2023-10-08T08:20:09;14.60;99.90
44447;DHT22;30152;52.066;5.358;2023-10-08T08:22:44;14.50;99.90
44447;DHT22;30152;52.066;5.358;2023-10-08T08:28:05;14.40;99.90
44447;DHT22;30152;52.066;5.358;2023-10-08T08:33:01;14.60;99.90
44447;DHT22;30152;52.066;5.358;2023-10-08T08:35:35;14.30;99.90
44447;DHT22;30152;52.066;5.358;2023-10-08T08:45:22;14.90;99.90
44447;DHT22;30152;52.066;5.358;2023-10-08T08:55:07;14.90;99.90
44447;DHT22;30152;52.066;5.358;2023-10-08T08:57:41;14.50;99.90
44447;DHT22;30152;52.066;5.358;2023-10-08T09:00:08;14.40;99.90
44447;DHT22;30152;52.066;5.358;2023-10-08T09:02:39;15.00;99.90
44447;DHT22;30152;52.066;5.358;2023-10-08T09:05:05;14.70;99.90
44447;DHT22;30152;52.066;5.358;2023-10-08T09:10:24;15.10;99.90
44447;DHT22;30152;52.066;5.358;2023-10-08T09:12:53;15.10;99.90
44447;DHT22;30152;52.066;5.358;2023-10-08T09:15:20;15.00;99.90
44447;DHT22;30152;52.066;5.358;2023-10-08T09:17:46;15.90;99.90
44447;DHT22;30152;52.066;5.358;2023-10-08T09:22:38;15.40;99.90
44447;DHT22;30152;52.066;5.358;2023-10-08T09:25:03;15.10;99.90
44447;DHT22;30152;52.066;5.358;2023-10-08T09:27:32;16.50;99.90
44447;DHT22;30152;52.066;5.358;2023-10-08T09:32:24;15.60;99.90
44447;DHT22;30152;52.066;5.358;2023-10-08T09:34:53;15.40;99.90
44447;DHT22;30152;52.066;5.358;2023-10-08T09:37:21;15.50;99.90
44447;DHT22;30152;52.066;5.358;2023-10-08T09:39:49;15.10;99.90
44447;DHT22;30152;52.066;5.358;2023-10-08T09:44:44;15.60;99.90
44447;DHT22;30152;52.066;5.358;2023-10-08T09:49:40;15.00;99.90
44447;DHT22;30152;52.066;5.358;2023-10-08T09:57:35;15.50;99.90
44447;DHT22;30152;52.066;5.358;2023-10-08T10:02:34;15.70;99.90
44447;DHT22;30152;52.066;5.358;2023-10-08T10:05:00;15.30;99.90
44447;DHT22;30152;52.066;5.358;2023-10-08T10:07:26;15.30;99.90
44447;DHT22;30152;52.066;5.358;2023-10-08T10:09:54;15.20;99.90
44447;DHT22;30152;52.066;5.358;2023-10-08T10:12:24;14.20;99.90
44447;DHT22;30152;52.066;5.358;2023-10-08T10:14:52;15.60;99.90
44447;DHT22;30152;52.066;5.358;2023-10-08T10:17:22;15.90;99.90
44447;DHT22;30152;52.066;5.358;2023-10-08T10:20:00;15.70;99.90
44447;DHT22;30152;52.066;5.358;2023-10-08T10:22:33;15.50;99.90
44447;DHT22;30152;52.066;5.358;2023-10-08T10:25:02;15.60;99.90
44447;DHT22;30152;52.066;5.358;2023-10-08T10:30:33;15.50;99.90
44447;DHT22;30152;52.066;5.358;2023-10-08T10:33:02;15.70;99.90
44447;DHT22;30152;52.066;5.358;2023-10-08T10:35:31;15.30;99.90
44447;DHT22;30152;52.066;5.358;2023-10-08T10:37:58;15.30;99.90
44447;DHT22;30152;52.066;5.358;2023-10-08T10:45:32;15.60;99.90
44447;DHT22;30152;52.066;5.358;2023-10-08T10:48:05;15.70;99.90
44447;DHT22;30152;52.066;5.358;2023-10-08T10:50:46;15.60;99.90
44447;DHT22;30152;52.066;5.358;2023-10-08T10:53:39;15.60;99.90
44447;DHT22;30152;52.066;5.358;2023-10-08T10:56:23;15.60;99.90
44447;DHT22;30152;52.066;5.358;2023-10-08T10:59:01;15.70;99.90
44447;DHT22;30152;52.066;5.358;2023-10-08T11:01:40;15.70;99.90
44447;DHT22;30152;52.066;5.358;2023-10-08T11:04:14;15.70;99.90
44447;DHT22;30152;52.066;5.358;2023-10-08T11:06:44;15.70;99.90
44447;DHT22;30152;52.066;5.358;2023-10-08T11:09:10;15.70;99.90
44447;DHT22;30152;52.066;5.358;2023-10-08T11:11:41;16.50;99.90
44447;DHT22;30152;52.066;5.358;2023-10-08T11:14:11;15.60;99.90
44447;DHT22;30152;52.066;5.358;2023-10-08T11:16:42;15.50;99.90
44447;DHT22;30152;52.066;5.358;2023-10-08T11:19:10;15.50;99.90
44447;DHT22;30152;52.066;5.358;2023-10-08T11:22:09;15.50;99.90
44447;DHT22;30152;52.066;5.358;2023-10-08T11:24:31;15.50;99.90
44447;DHT22;30152;52.066;5.358;2023-10-08T11:27:01;15.50;99.90
44447;DHT22;30152;52.066;5.358;2023-10-08T11:29:49;15.50;99.90
44447;DHT22;30152;52.066;5.358;2023-10-08T11:32:23;15.60;99.90
44447;DHT22;30152;52.066;5.358;2023-10-08T11:34:57;15.80;99.90
44447;DHT22;30152;52.066;5.358;2023-10-08T11:37:31;15.90;99.90
44447;DHT22;30152;52.066;5.358;2023-10-08T11:40:00;15.80;99.90
44447;DHT22;30152;52.066;5.358;2023-10-08T11:42:34;15.70;99.90
44447;DHT22;30152;52.066;5.358;2023-10-08T11:44:59;15.80;99.90
44447;DHT22;30152;52.066;5.358;2023-10-08T11:47:26;15.80;99.90
44447;DHT22;30152;52.066;5.358;2023-10-08T11:50:00;15.90;99.90
44447;DHT22;30152;52.066;5.358;2023-10-08T11:52:42;15.90;99.90
44447;DHT22;30152;52.066;5.358;2023-10-08T11:55:08;15.80;99.90
44447;DHT22;30152;52.066;5.358;2023-10-08T11:57:34;15.70;99.90
44447;DHT22;30152;52.066;5.358;2023-10-08T12:00:11;15.70;99.90
44447;DHT22;30152;52.066;5.358;2023-10-08T12:02:50;15.80;99.90
44447;DHT22;30152;52.066;5.358;2023-10-08T12:05:19;16.00;99.90
44447;DHT22;30152;52.066;5.358;2023-10-08T12:07:49;16.00;99.90
44447;DHT22;30152;52.066;5.358;2023-10-08T12:10:19;16.10;99.90
44447;DHT22;30152;52.066;5.358;2023-10-08T12:12:48;16.10;99.90
44447;DHT22;30152;52.066;5.358;2023-10-08T12:15:14;16.10;99.90
44447;DHT22;30152;52.066;5.358;2023-10-08T12:17:46;16.20;99.90
44447;DHT22;30152;52.066;5.358;2023-10-08T12:20:18;16.30;99.90
44447;DHT22;30152;52.066;5.358;2023-10-08T12:22:50;16.10;99.90
44447;DHT22;30152;52.066;5.358;2023-10-08T12:25:16;16.10;99.90
44447;DHT22;30152;52.066;5.358;2023-10-08T12:27:41;16.20;99.90
44447;DHT22;30152;52.066;5.358;2023-10-08T12:30:07;16.40;99.90
44447;DHT22;30152;52.066;5.358;2023-10-08T12:32:39;16.70;99.90
44447;DHT22;30152;52.066;5.358;2023-10-08T12:35:10;16.90;99.90
44447;DHT22;30152;52.066;5.358;2023-10-08T12:37:38;17.00;99.90
44447;DHT22;30152;52.066;5.358;2023-10-08T12:40:04;17.10;99.90
44447;DHT22;30152;52.066;5.358;2023-10-08T12:42:37;16.90;99.90
44447;DHT22;30152;52.066;5.358;2023-10-08T12:45:04;16.70;99.90
44447;DHT22;30152;52.066;5.358;2023-10-08T12:47:37;16.80;99.90
44447;DHT22;30152;52.066;5.358;2023-10-08T12:50:03;16.80;99.90
44447;DHT22;30152;52.066;5.358;2023-10-08T12:52:33;16.70;99.90
44447;DHT22;30152;52.066;5.358;2023-10-08T12:55:00;16.70;99.90
44447;DHT22;30152;52.066;5.358;2023-10-08T12:57:30;16.50;99.90
44447;DHT22;30152;52.066;5.358;2023-10-08T12:59:58;16.50;99.90
44447;DHT22;30152;52.066;5.358;2023-10-08T13:02:24;16.60;99.90
44447;DHT22;30152;52.066;5.358;2023-10-08T13:04:53;16.80;99.90
44447;DHT22;30152;52.066;5.358;2023-10-08T13:07:20;17.00;99.90
44447;DHT22;30152;52.066;5.358;2023-10-08T13:09:47;16.90;99.90
44447;DHT22;30152;52.066;5.358;2023-10-08T13:12:13;17.00;99.90
44447;DHT22;30152;52.066;5.358;2023-10-08T13:14:40;16.90;99.90
44447;DHT22;30152;52.066;5.358;2023-10-08T13:17:06;16.70;99.90
44447;DHT22;30152;52.066;5.358;2023-10-08T13:19:36;16.60;99.90
44447;DHT22;30152;52.066;5.358;2023-10-08T13:22:02;16.70;99.90
44447;DHT22;30152;52.066;5.358;2023-10-08T13:24:35;16.70;99.90
44447;DHT22;30152;52.066;5.358;2023-10-08T13:27:00;16.60;99.90
44447;DHT22;30152;52.066;5.358;2023-10-08T13:29:26;16.80;99.90
44447;DHT22;30152;52.066;5.358;2023-10-08T13:31:58;16.70;99.90
44447;DHT22;30152;52.066;5.358;2023-10-08T13:34:23;16.50;99.90
44447;DHT22;30152;52.066;5.358;2023-10-08T13:36:50;14.50;99.90
44447;DHT22;30152;52.066;5.358;2023-10-08T13:39:15;16.50;99.90
44447;DHT22;30152;52.066;5.358;2023-10-08T13:41:44;16.50;99.90
44447;DHT22;30152;52.066;5.358;2023-10-08T13:44:13;16.70;99.90
44447;DHT22;30152;52.066;5.358;2023-10-08T13:46:39;16.70;99.90
44447;DHT22;30152;52.066;5.358;2023-10-08T13:49:08;16.90;99.90
44447;DHT22;30152;52.066;5.358;2023-10-08T13:51:35;16.90;99.90
44447;DHT22;30152;52.066;5.358;2023-10-08T13:54:03;16.90;99.90
44447;DHT22;30152;52.066;5.358;2023-10-08T13:56:32;17.00;99.90
44447;DHT22;30152;52.066;5.358;2023-10-08T13:58:57;17.20;99.90
44447;DHT22;30152;52.066;5.358;2023-10-08T14:01:31;17.20;99.90
44447;DHT22;30152;52.066;5.358;2023-10-08T14:04:00;17.10;99.90
44447;DHT22;30152;52.066;5.358;2023-10-08T14:06:31;17.10;99.90
44447;DHT22;30152;52.066;5.358;2023-10-08T14:08:57;16.90;99.90
44447;DHT22;30152;52.066;5.358;2023-10-08T14:11:22;16.80;99.90
44447;DHT22;30152;52.066;5.358;2023-10-08T14:13:49;16.80;99.90
44447;DHT22;30152;52.066;5.358;2023-10-08T14:16:16;16.70;99.90
44447;DHT22;30152;52.066;5.358;2023-10-08T14:18:43;16.80;99.90
44447;DHT22;30152;52.066;5.358;2023-10-08T14:21:16;17.20;99.90
44447;DHT22;30152;52.066;5.358;2023-10-08T14:23:43;16.80;99.90
44447;DHT22;30152;52.066;5.358;2023-10-08T14:26:08;16.80;99.90
44447;DHT22;30152;52.066;5.358;2023-10-08T14:28:34;16.60;99.90
44447;DHT22;30152;52.066;5.358;2023-10-08T14:31:07;16.70;99.90
44447;DHT22;30152;52.066;5.358;2023-10-08T14:33:32;16.70;99.90
44447;DHT22;30152;52.066;5.358;2023-10-08T14:36:07;16.80;99.90
44447;DHT22;30152;52.066;5.358;2023-10-08T14:38:51;16.80;99.90
44447;DHT22;30152;52.066;5.358;2023-10-08T14:41:35;16.90;99.90
44447;DHT22;30152;52.066;5.358;2023-10-08T14:44:20;16.90;99.90
44447;DHT22;30152;52.066;5.358;2023-10-08T14:46:45;16.90;99.90
44447;DHT22;30152;52.066;5.358;2023-10-08T14:49:10;16.80;99.90
44447;DHT22;30152;52.066;5.358;2023-10-08T14:51:36;16.80;99.90
44447;DHT22;30152;52.066;5.358;2023-10-08T14:54:03;16.70;99.90
44447;DHT22;30152;52.066;5.358;2023-10-08T14:56:28;16.70;99.90
44447;DHT22;30152;52.066;5.358;2023-10-08T14:58:58;16.70;99.90
44447;DHT22;30152;52.066;5.358;2023-10-08T15:01:23;19.00;99.90
44447;DHT22;30152;52.066;5.358;2023-10-08T15:03:50;16.80;99.90
44447;DHT22;30152;52.066;5.358;2023-10-08T15:06:17;16.70;99.90
44447;DHT22;30152;52.066;5.358;2023-10-08T15:08:44;16.70;99.90
44447;DHT22;30152;52.066;5.358;2023-10-08T15:11:10;16.80;99.90
44447;DHT22;30152;52.066;5.358;2023-10-08T15:13:36;16.70;99.90
44447;DHT22;30152;52.066;5.358;2023-10-08T15:16:04;16.80;99.90
44447;DHT22;30152;52.066;5.358;2023-10-08T15:18:30;16.80;99.90
44447;DHT22;30152;52.066;5.358;2023-10-08T15:20:57;16.80;99.90
44447;DHT22;30152;52.066;5.358;2023-10-08T15:23:23;16.80;99.90
44447;DHT22;30152;52.066;5.358;2023-10-08T15:25:51;16.80;99.90
44447;DHT22;30152;52.066;5.358;2023-10-08T15:28:16;16.60;99.90
44447;DHT22;30152;52.066;5.358;2023-10-08T15:30:41;16.70;99.90
44447;DHT22;30152;52.066;5.358;2023-10-08T15:33:07;16.70;99.90
44447;DHT22;30152;52.066;5.358;2023-10-08T15:35:32;16.70;99.90
44447;DHT22;30152;52.066;5.358;2023-10-08T15:37:58;16.70;99.90
44447;DHT22;30152;52.066;5.358;2023-10-08T15:40:23;16.60;99.90
44447;DHT22;30152;52.066;5.358;2023-10-08T15:42:50;16.60;99.90
44447;DHT22;30152;52.066;5.358;2023-10-08T15:45:16;16.60;99.90
44447;DHT22;30152;52.066;5.358;2023-10-08T15:47:42;16.80;99.90
44447;DHT22;30152;52.066;5.358;2023-10-08T15:50:07;16.60;99.90
44447;DHT22;30152;52.066;5.358;2023-10-08T15:52:36;16.50;99.90
44447;DHT22;30152;52.066;5.358;2023-10-08T15:55:02;16.60;99.90
44447;DHT22;30152;52.066;5.358;2023-10-08T15:57:29;16.50;99.90
44447;DHT22;30152;52.066;5.358;2023-10-08T15:59:54;16.50;99.90
44447;DHT22;30152;52.066;5.358;2023-10-08T16:02:19;16.50;99.90
44447;DHT22;30152;52.066;5.358;2023-10-08T16:04:45;17.30;99.90
44447;DHT22;30152;52.066;5.358;2023-10-08T16:07:10;16.50;99.90
44447;DHT22;30152;52.066;5.358;2023-10-08T16:09:39;16.50;99.90
44447;DHT22;30152;52.066;5.358;2023-10-08T16:12:06;16.40;99.90
44447;DHT22;30152;52.066;5.358;2023-10-08T16:14:32;16.30;99.90
44447;DHT22;30152;52.066;5.358;2023-10-08T16:16:57;16.30;99.90
44447;DHT22;30152;52.066;5.358;2023-10-08T16:19:22;18.10;99.90
44447;DHT22;30152;52.066;5.358;2023-10-08T16:21:48;16.30;99.90
44447;DHT22;30152;52.066;5.358;2023-10-08T16:24:14;16.30;99.90
44447;DHT22;30152;52.066;5.358;2023-10-08T16:26:40;16.30;99.90
44447;DHT22;30152;52.066;5.358;2023-10-08T16:29:06;16.20;99.90
44447;DHT22;30152;52.066;5.358;2023-10-08T16:31:32;16.20;99.90
44447;DHT22;30152;52.066;5.358;2023-10-08T16:34:04;16.20;99.90
44447;DHT22;30152;52.066;5.358;2023-10-08T16:36:29;16.20;99.90
44447;DHT22;30152;52.066;5.358;2023-10-08T16:38:55;16.10;99.90
44447;DHT22;30152;52.066;5.358;2023-10-08T16:41:20;16.10;99.90
44447;DHT22;30152;52.066;5.358;2023-10-08T16:43:46;16.00;99.90
44447;DHT22;30152;52.066;5.358;2023-10-08T16:46:11;15.90;99.90
44447;DHT22;30152;52.066;5.358;2023-10-08T16:48:37;15.90;99.90
44447;DHT22;30152;52.066;5.358;2023-10-08T16:51:02;15.90;99.90
44447;DHT22;30152;52.066;5.358;2023-10-08T16:53:28;15.90;99.90
44447;DHT22;30152;52.066;5.358;2023-10-08T16:55:54;15.90;99.90
44447;DHT22;30152;52.066;5.358;2023-10-08T16:58:20;15.70;99.90
44447;DHT22;30152;52.066;5.358;2023-10-08T17:00:45;15.70;99.90
44447;DHT22;30152;52.066;5.358;2023-10-08T17:03:12;15.70;99.90
44447;DHT22;30152;52.066;5.358;2023-10-08T17:05:38;15.60;99.90
44447;DHT22;30152;52.066;5.358;2023-10-08T17:08:05;15.60;99.90
44447;DHT22;30152;52.066;5.358;2023-10-08T17:10:30;15.50;99.90
44447;DHT22;30152;52.066;5.358;2023-10-08T17:12:59;15.50;99.90
44447;DHT22;30152;52.066;5.358;2023-10-08T17:15:24;15.50;99.90
44447;DHT22;30152;52.066;5.358;2023-10-08T17:17:50;15.40;99.90
44447;DHT22;30152;52.066;5.358;2023-10-08T17:20:15;15.40;99.90
44447;DHT22;30152;52.066;5.358;2023-10-08T17:22:45;15.40;99.90
44447;DHT22;30152;52.066;5.358;2023-10-08T17:25:11;15.40;99.90
44447;DHT22;30152;52.066;5.358;2023-10-08T17:27:36;15.40;99.90
44447;DHT22;30152;52.066;5.358;2023-10-08T17:30:04;15.40;99.90
44447;DHT22;30152;52.066;5.358;2023-10-08T17:32:31;15.30;99.90
44447;DHT22;30152;52.066;5.358;2023-10-08T17:34:57;15.30;99.90
44447;DHT22;30152;52.066;5.358;2023-10-08T17:37:24;15.30;99.90
44447;DHT22;30152;52.066;5.358;2023-10-08T17:39:50;15.20;99.90
44447;DHT22;30152;52.066;5.358;2023-10-08T17:42:15;15.10;99.90
44447;DHT22;30152;52.066;5.358;2023-10-08T17:44:40;15.10;99.90
44447;DHT22;30152;52.066;5.358;2023-10-08T17:47:06;15.10;99.90
44447;DHT22;30152;52.066;5.358;2023-10-08T17:49:31;15.00;99.90
44447;DHT22;30152;52.066;5.358;2023-10-08T17:52:01;15.00;99.90
44447;DHT22;30152;52.066;5.358;2023-10-08T17:54:27;15.00;99.90
44447;DHT22;30152;52.066;5.358;2023-10-08T17:56:56;15.00;99.90
44447;DHT22;30152;52.066;5.358;2023-10-08T17:59:21;14.90;99.90
44447;DHT22;30152;52.066;5.358;2023-10-08T18:01:48;14.90;99.90
44447;DHT22;30152;52.066;5.358;2023-10-08T18:04:13;14.90;99.90
44447;DHT22;30152;52.066;5.358;2023-10-08T18:06:39;14.90;99.90
44447;DHT22;30152;52.066;5.358;2023-10-08T18:09:06;14.80;99.90
44447;DHT22;30152;52.066;5.358;2023-10-08T18:11:35;14.80;99.90
44447;DHT22;30152;52.066;5.358;2023-10-08T18:14:10;14.80;99.90
44447;DHT22;30152;52.066;5.358;2023-10-08T18:16:39;14.70;99.90
44447;DHT22;30152;52.066;5.358;2023-10-08T18:19:08;14.70;99.90
44447;DHT22;30152;52.066;5.358;2023-10-08T18:21:34;14.60;99.90
44447;DHT22;30152;52.066;5.358;2023-10-08T18:24:06;14.50;99.90
44447;DHT22;30152;52.066;5.358;2023-10-08T18:26:32;14.50;99.90
44447;DHT22;30152;52.066;5.358;2023-10-08T18:28:58;14.50;99.90
44447;DHT22;30152;52.066;5.358;2023-10-08T18:31:23;14.40;99.90
44447;DHT22;30152;52.066;5.358;2023-10-08T18:33:49;14.40;99.90
44447;DHT22;30152;52.066;5.358;2023-10-08T18:36:15;14.40;99.90
44447;DHT22;30152;52.066;5.358;2023-10-08T18:38:41;14.30;99.90
44447;DHT22;30152;52.066;5.358;2023-10-08T18:41:07;14.40;99.90
44447;DHT22;30152;52.066;5.358;2023-10-08T18:43:41;14.30;99.90
44447;DHT22;30152;52.066;5.358;2023-10-08T18:46:08;14.30;99.90
44447;DHT22;30152;52.066;5.358;2023-10-08T18:48:35;14.20;99.90
44447;DHT22;30152;52.066;5.358;2023-10-08T18:51:10;14.20;99.90
44447;DHT22;30152;52.066;5.358;2023-10-08T18:53:39;14.50;99.90
44447;DHT22;30152;52.066;5.358;2023-10-08T18:56:08;14.10;99.90
44447;DHT22;30152;52.066;5.358;2023-10-08T18:58:39;14.10;99.90
44447;DHT22;30152;52.066;5.358;2023-10-08T19:01:05;14.10;99.90
44447;DHT22;30152;52.066;5.358;2023-10-08T19:03:32;14.10;99.90
44447;DHT22;30152;52.066;5.358;2023-10-08T19:05:58;14.00;99.90
44447;DHT22;30152;52.066;5.358;2023-10-08T19:08:24;14.00;99.90
44447;DHT22;30152;52.066;5.358;2023-10-08T19:10:50;13.90;99.90
44447;DHT22;30152;52.066;5.358;2023-10-08T19:13:16;13.90;99.90
44447;DHT22;30152;52.066;5.358;2023-10-08T19:15:41;13.80;99.90
44447;DHT22;30152;52.066;5.358;2023-10-08T19:18:07;13.90;99.90
44447;DHT22;30152;52.066;5.358;2023-10-08T19:20:36;13.80;99.90
44447;DHT22;30152;52.066;5.358;2023-10-08T19:23:03;13.70;99.90
44447;DHT22;30152;52.066;5.358;2023-10-08T19:25:29;13.60;99.90
44447;DHT22;30152;52.066;5.358;2023-10-08T19:27:54;13.60;99.90
44447;DHT22;30152;52.066;5.358;2023-10-08T19:30:20;13.60;99.90
44447;DHT22;30152;52.066;5.358;2023-10-08T19:32:45;13.40;99.90
44447;DHT22;30152;52.066;5.358;2023-10-08T19:35:12;13.40;99.90
44447;DHT22;30152;52.066;5.358;2023-10-08T19:37:37;13.40;99.90
44447;DHT22;30152;52.066;5.358;2023-10-08T19:40:04;13.30;99.90
44447;DHT22;30152;52.066;5.358;2023-10-08T19:42:36;13.30;99.90
44447;DHT22;30152;52.066;5.358;2023-10-08T19:45:05;13.20;99.90
44447;DHT22;30152;52.066;5.358;2023-10-08T19:47:31;13.20;99.90
44447;DHT22;30152;52.066;5.358;2023-10-08T19:49:56;13.20;99.90
44447;DHT22;30152;52.066;5.358;2023-10-08T19:52:23;13.10;99.90
44447;DHT22;30152;52.066;5.358;2023-10-08T19:54:48;13.10;99.90
44447;DHT22;30152;52.066;5.358;2023-10-08T19:57:13;13.10;99.90
44447;DHT22;30152;52.066;5.358;2023-10-08T19:59:39;13.10;99.90
44447;DHT22;30152;52.066;5.358;2023-10-08T20:02:04;13.10;99.90
44447;DHT22;30152;52.066;5.358;2023-10-08T20:04:31;13.00;99.90
44447;DHT22;30152;52.066;5.358;2023-10-08T20:06:57;13.00;99.90
44447;DHT22;30152;52.066;5.358;2023-10-08T20:09:22;12.90;99.90
44447;DHT22;30152;52.066;5.358;2023-10-08T20:11:52;12.90;99.90
44447;DHT22;30152;52.066;5.358;2023-10-08T20:14:18;12.90;99.90
44447;DHT22;30152;52.066;5.358;2023-10-08T20:16:44;12.80;99.90
44447;DHT22;30152;52.066;5.358;2023-10-08T20:19:09;12.80;99.90
44447;DHT22;30152;52.066;5.358;2023-10-08T20:21:35;12.70;99.90
44447;DHT22;30152;52.066;5.358;2023-10-08T20:24:01;12.80;99.90
44447;DHT22;30152;52.066;5.358;2023-10-08T20:26:26;12.80;99.90
44447;DHT22;30152;52.066;5.358;2023-10-08T20:28:55;12.90;99.90
44447;DHT22;30152;52.066;5.358;2023-10-08T20:31:23;13.10;99.90
44447;DHT22;30152;52.066;5.358;2023-10-08T20:33:49;13.30;99.90
44447;DHT22;30152;52.066;5.358;2023-10-08T20:36:15;13.40;99.90
44447;DHT22;30152;52.066;5.358;2023-10-08T20:38:43;13.60;99.90
44447;DHT22;30152;52.066;5.358;2023-10-08T20:41:15;13.70;99.90
44447;DHT22;30152;52.066;5.358;2023-10-08T20:55:52;14.00;99.90
44447;DHT22;30152;52.066;5.358;2023-10-08T20:58:18;13.80;99.90
44447;DHT22;30152;52.066;5.358;2023-10-08T21:00:44;14.00;99.90
